Riceville, Pennsylvania
Current Conditions -  °F | °C
As of 9:53 PM on Sunday 23 Nov 2014 (Local Time) from KGKJ Reporting Station
Light Rain Light Rain  
Wind Chill: 45°   Ceiling: 7500
Heat Index: 49°   Visibility: 5mi
Dew Point: 41°   Wind: 8mph
Humidity: 74%   Direction: 130°SE
Pressure: 29.63"   Gusts: NA
Location:  41.78°N, 79.8°W
Report Text: KGKJ 240253Z AUTO 13007KT 090V160 5SM -RA SCT050 BKN075 OVC090 09/05 A2963 RMK AO2 SLP038 P0005 60005 T00940050 56031 TSNO
Loading
Personal Weather Stations






























Interactive Weather Map New forecast layout! Learn more

10-Day Weather Forecast

Advertisements
Track Severe Weather on mobile